Saint Petersburg, FL (33741)

2:19 PM EST on February 28, 2015 (GMT -0500)
Belle Vista | Change Station
CLOSE
Current Station
Personal Weather Station
Location: Saint Pete Beach, FL
Elevation: 0 ft
Nearby Weather Stations

Elev 0 ft 27.71 °N, 82.73 °W | Updated 13 seconds ago

Rain
Rain
64.8 °F
Feels Like 64.8 °F
N
0.0
Wind Variable Wind from West
Gusts 0.0 mph

Today
High -- | Low -- °F
--% Chance of Precip.
Yesterday
High -- | Low -- °F
Precip. -- in
6:56 AM 6:30 PM
Waxing Gibbous, 79% visible
Pressure 30.27 in
Visibility 2.5 miles
Clouds Few 900 ft
Scattered Clouds 1200 ft
Overcast 2100 ft
Dew Point 64 °F
Humidity 98%
Rainfall 0.76 in
Snow Depth Not available.
UV 1.0 out of 12
Pollen 10.50 out of 12
Air Quality Not available.
Flu Activity Not available.
SPECI KSPG 281911Z 07011KT 2 1/2SM -RA BR FEW009 SCT012 OVC021 18/17 A3027 RMK AO2 P0003 T01780167

More Conditions Fewer Conditions

Pressure 30.27 in
Visibility 2.5 miles
Clouds Few 900 ft
Scattered Clouds 1200 ft
Overcast 2100 ft
Dew Point 64 °F
Humidity 98%
Rainfall 0.76 in
Snow Depth Not available.
UV 1.0 out of 12
Pollen 10.50 out of 12
Air Quality Not available.
Flu Activity Not available.
SPECI KSPG 281911Z 07011KT 2 1/2SM -RA BR FEW009 SCT012 OVC021 18/17 A3027 RMK AO2 P0003 T01780167

More Conditions Fewer Conditions

10-Day Weather Forecast

Almanac

Astronomy

Feb. 28, 2015 Rise Set
Actual Time
Civil Twilight
Nautical Twilight
Astronomical Twilight
Moon
Length of Visible Light
Length of Day
Tomorrow will be .
, % of the Moon is Illuminated

Today's Extremes

State Highs State Lows

Community

WunderPhotos

Upload Photos

1,801,120 photos uploaded!

WunderBlogs® & News

Nearby

Air Quality

  Air Quality AQ Index Pollutant
Not available.

Snow Depth

Station Depth Elevation

Earthquake Activity

City Distance Mag. Time & Date
Minimum magnitude displayed is 2.5.

Coastal Water Temperatures

Place Temperature

Nearby Weather Stations